Thursday, January 18, 2018, 8:54 PM EST
Back to Local

KBTP, Butler, Butler County Airport/k W Scholter Field

Location: Renfrew, PA, United States Lat: 40.783
Local Time: 8:54 PM EST ( 1:54 GMT) Lon: -79.95
Time Zone: US/Eastern Elev: 1246 ft

Show me the last for .
Show Decoded

2018-01-18 19:56 METAR KBTP 190056Z AUTO 22008KT 10SM CLR M06/M12 A3012 RMK AO2 SLP229 T10611117
                 FZRANO =
2018-01-18 18:56 METAR KBTP 182356Z AUTO 22008KT 10SM CLR M06/M12 A3011 RMK AO2 SLP225 60000
                 T10611117 11033 21061 53002 FZRANO =
2018-01-18 17:56 METAR KBTP 182256Z AUTO 21008KT 10SM CLR M06/M12 A3009 RMK AO2 SLP221 T10561117
                 FZRANO =
2018-01-18 16:56 METAR KBTP 182156Z AUTO 22009KT 10SM CLR M04/M11 A3009 RMK AO2 SNE31 SLP220
                 P0000 T10391111 FZRANO =
2018-01-18 15:56 METAR KBTP 182056Z AUTO 24014G20KT 9SM -SN CLR M04/M11 A3010 RMK AO2 SNB04E28B51
                 SLP222 P0000 60000 T10391111 56011 FZRANO =
2018-01-18 14:56 METAR KBTP 181956Z AUTO 22009KT 9SM CLR M03/M11 A3011 RMK AO2 SNE52 SLP224 P0000
                 T10331111 FZRANO =
2018-01-18 13:56 METAR KBTP 181856Z AUTO 22011KT 9SM -SN CLR M04/M12 A3011 RMK AO2 SLP225 P0000
                 T10441117 FZRANO =
2018-01-18 13:04 METAR KBTP 181804Z AUTO 22011G19KT 4SM -SN CLR M05/M12 A3013 RMK AO2 P0000
                 FZRANO =
2018-01-18 12:56 METAR KBTP 181756Z AUTO 23011G18KT 3/4SM -SN CLR M06/M12 A3013 RMK AO2 VIS
                 M1/4V5 SLP235 P0000 60000 T10561122 11056 21144 56019 FZRANO RVRNO =
2018-01-18 12:54 METAR KBTP 181754Z AUTO 24011G18KT 3/4SM -SN CLR M06/M12 A3014 RMK AO2 VIS
                 M1/4V5 P0000 FZRANO RVRNO =
2018-01-18 12:34 METAR KBTP 181734Z AUTO 22011G18KT 6SM -SN CLR M06/M12 A3015 RMK AO2 P0000
                 FZRANO TSNO =
2018-01-18 12:27 METAR KBTP 181727Z AUTO 22010G18KT 2 1/2SM -SN CLR M06/M13 A3015 RMK AO2 VIS 1V5
                 P0000 FZRANO =
2018-01-18 12:18 METAR KBTP 181718Z AUTO 22013KT 1 1/4SM -SN CLR M06/M13 A3016 RMK AO2 P0000
                 FZRANO =
2018-01-18 12:07 METAR KBTP 181707Z AUTO 22012G19KT 1SM -SN CLR M07/M13 A3017 RMK AO2 VIS 1/2V5
                 P0000 FZRANO RVRNO =
2018-01-18 11:56 METAR KBTP 181656Z AUTO 22015G19KT 1/2SM SN CLR M07/M13 A3017 RMK AO2 SLP248
                 P0000 T10671128 FZRANO RVRNO =
2018-01-18 11:40 METAR KBTP 181640Z AUTO 23012G20KT 1SM -SN CLR M07/M13 A3018 RMK AO2 VIS 1/4V5
                 P0000 FZRANO RVRNO =
2018-01-18 11:33 METAR KBTP 181633Z AUTO 24014G20KT 1/2SM SN CLR M07/M13 A3019 RMK AO2 VIS 1/4V3
                 P0000 FZRANO RVRNO =
2018-01-18 11:27 METAR KBTP 181627Z AUTO 22013KT 1SM -SN CLR M07/M13 A3019 RMK AO2 VIS 1/2V5
                 P0000 FZRANO RVRNO =
2018-01-18 11:21 METAR KBTP 181621Z AUTO 22012G18KT 2SM -SN CLR M07/M13 A3020 RMK AO2 VIS 1V5
                 P0000 FZRANO =
2018-01-18 11:15 METAR KBTP 181615Z AUTO 22011G18KT 1SM -SN CLR M07/M13 A3020 RMK AO2 VIS 1/2V5
                 P0000 FZRANO RVRNO =
2018-01-18 11:06 METAR KBTP 181606Z AUTO 22012KT 3/4SM -SN CLR M07/M13 A3019 RMK AO2 P0000 FZRANO
                 RVRNO =
2018-01-18 10:56 METAR KBTP 181556Z AUTO 23016G22KT 1/4SM +SN CLR M08/M13 A3019 RMK AO2 VIS
                 M1/4V1 1/2 SNB19 SLP255 P0000 T10781133 FZRANO RVRNO =
2018-01-18 10:21 METAR KBTP 181521Z AUTO 23011G21KT 1/4SM +SN CLR M09/M14 A3021 RMK AO2 SNB19
                 P0000 FZRANO RVRNO =
2018-01-18 10:19 METAR KBTP 181519Z AUTO 23014G21KT 3/4SM -SN CLR M09/M14 A3021 RMK AO2 SNB19
                 P0000 FZRANO RVRNO =
2018-01-18 09:56 METAR KBTP 181456Z AUTO 22011KT 10SM CLR M09/M14 A3021 RMK AO2 SLP262 T10941139
                 51009 FZRANO =
2018-01-18 08:56 METAR KBTP 181356Z AUTO 22008KT 10SM CLR M12/M14 A3020 RMK AO2 SLP260 T11171144
                 FZRANO =
2018-01-18 07:56 METAR KBTP 181256Z AUTO 22006KT 10SM CLR M14/M16 A3019 RMK AO2 SLP259 T11441161
                 FZRANO =
2018-01-18 06:56 METAR KBTP 181156Z AUTO 20010KT 10SM CLR M14/M16 A3018 RMK AO2 SLP254 60000
                 T11441161 11144 21150 56019 FZRANO =
2018-01-18 05:56 METAR KBTP 181056Z AUTO 20009KT 10SM CLR M14/M16 A3019 RMK AO2 SLP259 T11441161
                 FZRANO =
2018-01-18 04:56 METAR KBTP 180956Z AUTO 20006KT 10SM CLR M15/M16 A3022 RMK AO2 SNB35E45 SLP267
                 P0000 T11501161 FZRANO =
2018-01-18 03:56 METAR KBTP 180856Z AUTO 21007KT 10SM CLR M15/M16 A3024 RMK AO2 SNB11E47 SLP271
                 P0000 60000 T11501161 56009 FZRANO =
2018-01-18 02:56 METAR KBTP 180756Z AUTO 20008KT 10SM CLR M14/M16 A3024 RMK AO2 SLP273 T11441161
                 FZRANO =
2018-01-18 01:56 METAR KBTP 180656Z AUTO 21008KT 10SM CLR M14/M16 A3025 RMK AO2 SLP276 T11441161
                 FZRANO =
2018-01-18 00:56 METAR KBTP 180556Z AUTO 22008KT 10SM SCT120 M14/M16 A3026 RMK AO2 SLP280
                 T11441161 11133 21144 56019 FZRANO =
2018-01-17 23:56 METAR KBTP 180456Z AUTO 22007KT 10SM CLR M14/M16 A3028 RMK AO2 SLP287 T11441161
                 410781189 FZRANO =
2018-01-17 22:56 METAR KBTP 180356Z AUTO 23007KT 10SM CLR M14/M17 A3030 RMK AO2 SLP295 T11441167
                 FZRANO =
2018-01-17 21:56 METAR KBTP 180256Z AUTO 22007KT 10SM CLR M14/M16 A3032 RMK AO2 SLP302 T11441161
                 56012 FZRANO =
2018-01-17 20:56 METAR KBTP 180156Z AUTO 22006KT 10SM CLR M14/M16 A3033 RMK AO2 SLP307 T11441161
                 FZRANO =

Support USWX by starting your Amazon purchase here.